createdAt,value
2022-12-11T16:31:45.656Z,1.83
2022-12-11T16:34:49.673Z,1.93
2022-12-11T16:37:54.853Z,1.73
2022-12-11T16:41:02.074Z,2.07
2022-12-11T16:44:06.701Z,1.63
2022-12-11T16:47:11.879Z,2.40
2022-12-11T16:50:17.416Z,2.40
2022-12-11T16:53:21.320Z,3.17
2022-12-11T16:56:25.505Z,2.17
2022-12-11T16:59:33.713Z,1.90
2022-12-11T17:02:42.646Z,1.93
2022-12-11T17:05:46.610Z,2.10
2022-12-11T17:08:50.376Z,2.90
2022-12-11T17:11:54.696Z,3.03
2022-12-11T17:14:58.766Z,3.47
2022-12-11T17:18:04.371Z,2.73
2022-12-11T17:21:09.422Z,2.93
2022-12-11T17:24:13.164Z,2.43
2022-12-11T17:27:17.001Z,2.30
2022-12-11T17:30:20.785Z,3.57
2022-12-11T17:33:25.911Z,3.00
2022-12-11T17:36:29.925Z,3.07
2022-12-11T17:39:33.812Z,3.57
2022-12-11T17:42:37.644Z,2.60
2022-12-11T17:45:45.832Z,2.77
2022-12-11T17:48:51.040Z,2.67
2022-12-11T17:51:55.521Z,2.87
2022-12-11T17:54:59.345Z,2.97
2022-12-11T17:58:03.365Z,3.17
2022-12-11T18:01:09.225Z,2.67
2022-12-11T18:04:14.506Z,3.53
2022-12-11T18:07:19.256Z,2.77
2022-12-11T18:10:23.014Z,3.90
2022-12-11T18:13:26.920Z,4.10
2022-12-11T18:16:33.163Z,2.73
2022-12-11T18:19:44.438Z,3.50
2022-12-11T18:22:49.773Z,2.73
2022-12-11T18:25:53.897Z,3.17
2022-12-11T18:28:57.724Z,3.47
2022-12-11T18:32:01.605Z,2.83
2022-12-11T18:35:07.729Z,3.73
2022-12-11T18:38:12.690Z,3.13
2022-12-11T18:41:18.023Z,3.10
2022-12-11T18:44:22.768Z,4.70
2022-12-11T18:47:26.919Z,3.50
2022-12-11T18:50:32.068Z,3.53
2022-12-11T18:53:36.900Z,3.03
2022-12-11T18:56:41.778Z,3.53
2022-12-11T18:59:45.576Z,3.60
2022-12-11T19:02:51.444Z,3.53
2022-12-11T19:05:56.717Z,2.70
2022-12-11T19:09:01.106Z,2.93
2022-12-11T19:12:05.489Z,3.13
2022-12-11T19:15:10.886Z,3.10
2022-12-11T19:18:14.963Z,3.97
2022-12-11T19:21:21.243Z,4.83
2022-12-11T19:24:25.734Z,3.73
2022-12-11T19:27:29.591Z,4.03
2022-12-11T19:30:33.329Z,4.07
2022-12-11T19:33:37.229Z,2.60
2022-12-11T19:36:42.365Z,3.30
2022-12-11T19:39:46.387Z,6.20
2022-12-11T19:42:50.404Z,5.50
2022-12-11T19:45:54.164Z,3.43
2022-12-11T19:48:59.692Z,5.17
2022-12-11T19:52:07.247Z,5.13
2022-12-11T19:55:13.500Z,4.43
2022-12-11T19:58:17.493Z,4.63
2022-12-11T20:01:25.885Z,4.43
2022-12-11T20:04:30.428Z,4.87
2022-12-11T20:07:35.853Z,4.00
2022-12-11T20:10:39.817Z,5.03
2022-12-11T20:13:45.780Z,3.83
2022-12-11T20:20:14.424Z,4.20
2022-12-11T20:23:19.759Z,5.33
2022-12-11T20:26:25.299Z,4.20
2022-12-11T20:29:29.108Z,4.63
2022-12-11T20:32:33.462Z,4.87
2022-12-11T20:35:37.357Z,4.80
2022-12-11T20:38:42.737Z,4.30
2022-12-11T20:41:46.473Z,4.17
2022-12-11T20:44:50.363Z,3.83
2022-12-11T20:47:54.369Z,4.70
2022-12-11T20:51:00.895Z,4.93
2022-12-11T20:54:06.154Z,5.33
2022-12-11T20:57:10.367Z,4.70
2022-12-11T21:00:15.054Z,4.13
2022-12-11T21:03:19.001Z,4.47
2022-12-11T21:06:25.844Z,5.70
2022-12-11T21:09:31.038Z,3.83
2022-12-11T21:12:35.166Z,4.77
2022-12-11T21:15:40.149Z,5.10
2022-12-11T21:18:44.402Z,3.77
2022-12-11T21:21:48.728Z,4.00
2022-12-11T21:24:53.877Z,4.63
2022-12-11T21:27:57.674Z,4.03
2022-12-11T21:31:02.826Z,5.27
2022-12-11T21:34:07.271Z,4.13
